Time;durP1;ratioP1;P1;durP2;ratioP2;P2;SDS_P1;SDS_P2;PMS_P1;PMS_P2;Temp;Humidity;BMP_temperature;BMP_pressure;BME280_temperature;BME280_humidity;BME280_pressure;Samples;Min_cycle;Max_cycle;Signal;HPM_P1;HPM_P2
2022/01/29 00:00:55;;;;;;;2.90;2.53;;;;;;;;;;5032894;28;20044;-75
2022/01/29 00:03:22;;;;;;;2.78;2.30;;;;;;;;;;5033275;28;20026;-75
2022/01/29 00:05:49;;;;;;;3.75;2.50;;;;;;;;;;5032933;28;20029;-75
2022/01/29 00:08:15;;;;;;;3.25;2.53;;;;;;;;;;5033347;28;20039;-75
2022/01/29 00:10:43;;;;;;;3.22;2.40;;;;;;;;;;5032858;28;20461;-75
2022/01/29 00:13:09;;;;;;;2.95;2.50;;;;;;;;;;5033059;28;20083;-75
2022/01/29 00:15:35;;;;;;;3.58;2.70;;;;;;;;;;5032475;28;20029;-75
2022/01/29 00:18:02;;;;;;;4.68;2.60;;;;;;;;;;5033160;28;20104;-75
2022/01/29 00:20:28;;;;;;;3.05;2.42;;;;;;;;;;5041816;28;20484;-75
2022/01/29 00:22:54;;;;;;;2.55;2.03;;;;;;;;;;5052930;28;20021;-75
2022/01/29 00:25:20;;;;;;;3.00;2.53;;;;;;;;;;5052685;28;20025;-75
2022/01/29 00:27:46;;;;;;;4.68;3.10;;;;;;;;;;5052775;28;20052;-75
2022/01/29 00:30:17;;;;;;;2.90;2.38;;;;;;;;;;5052335;28;20025;-75
2022/01/29 00:32:43;;;;;;;3.53;2.80;;;;;;;;;;5052456;28;20033;-75
2022/01/29 00:35:10;;;;;;;3.15;2.60;;;;;;;;;;5052027;28;20079;-75
2022/01/29 00:37:39;;;;;;;3.33;2.63;;;;;;;;;;5052613;28;20025;-75
2022/01/29 00:40:05;;;;;;;3.38;2.63;;;;;;;;;;5052780;28;20020;-75
2022/01/29 00:42:31;;;;;;;3.38;2.67;;;;;;;;;;5038491;28;20112;-75
2022/01/29 00:44:58;;;;;;;5.03;3.53;;;;;;;;;;5032753;28;20025;-75
2022/01/29 00:47:24;;;;;;;3.50;3.10;;;;;;;;;;5032435;28;20088;-75
2022/01/29 00:49:50;;;;;;;5.13;3.45;;;;;;;;;;5032472;28;20034;-75
2022/01/29 00:52:16;;;;;;;3.60;3.15;;;;;;;;;;5033389;28;20025;-75
2022/01/29 00:54:44;;;;;;;4.90;3.78;;;;;;;;;;5052566;28;20533;-75
2022/01/29 00:57:10;;;;;;;4.43;3.40;;;;;;;;;;5051943;28;20040;-75
2022/01/29 00:59:37;;;;;;;5.68;3.90;;;;;;;;;;5052103;28;20045;-75
2022/01/29 01:02:04;;;;;;;4.82;3.83;;;;;;;;;;5051731;28;20583;-75
2022/01/29 01:04:31;;;;;;;6.32;3.53;;;;;;;;;;5052259;28;20123;-75
2022/01/29 01:06:57;;;;;;;5.95;3.83;;;;;;;;;;5052129;28;20452;-75
2022/01/29 01:09:24;;;;;;;4.80;3.78;;;;;;;;;;5052457;28;20056;-75
2022/01/29 01:11:50;;;;;;;6.47;3.85;;;;;;;;;;5051583;28;20075;-75
2022/01/29 01:14:16;;;;;;;6.05;4.10;;;;;;;;;;5052098;28;20456;-75
2022/01/29 01:16:42;;;;;;;5.57;4.07;;;;;;;;;;5052115;28;20029;-75
2022/01/29 01:19:08;;;;;;;5.43;3.80;;;;;;;;;;5052263;28;20029;-75
2022/01/29 01:21:34;;;;;;;4.80;3.88;;;;;;;;;;5031592;28;20028;-75
2022/01/29 01:24:00;;;;;;;6.68;4.40;;;;;;;;;;5032251;28;20051;-75
2022/01/29 01:26:26;;;;;;;6.35;4.43;;;;;;;;;;5030592;28;20025;-75
2022/01/29 01:28:52;;;;;;;6.05;4.50;;;;;;;;;;5032311;28;20083;-75
2022/01/29 01:31:18;;;;;;;6.15;4.35;;;;;;;;;;5031355;28;20025;-75
2022/01/29 01:33:46;;;;;;;6.35;4.80;;;;;;;;;;5032170;28;20032;-75
2022/01/29 01:36:14;;;;;;;5.07;3.95;;;;;;;;;;5031698;28;20242;-75
2022/01/29 01:38:49;;;;;;;5.53;4.63;;;;;;;;;;5032277;28;20034;-75
2022/01/29 01:41:21;;;;;;;5.60;4.05;;;;;;;;;;5034991;28;20016;-75
2022/01/29 01:43:47;;;;;;;6.43;4.47;;;;;;;;;;5052018;28;20029;-75
2022/01/29 01:46:13;;;;;;;6.63;4.28;;;;;;;;;;5050219;28;20381;-75
2022/01/29 01:48:39;;;;;;;5.45;4.35;;;;;;;;;;5054305;28;20075;-75
2022/01/29 01:51:06;;;;;;;6.63;4.25;;;;;;;;;;5055291;28;20029;-75
2022/01/29 01:53:33;;;;;;;6.95;4.43;;;;;;;;;;5042456;28;20033;-75
2022/01/29 01:55:59;;;;;;;6.15;3.78;;;;;;;;;;5035174;28;20026;-75
2022/01/29 01:58:25;;;;;;;5.30;3.92;;;;;;;;;;5035321;28;20053;-75
2022/01/29 02:00:51;;;;;;;5.78;4.40;;;;;;;;;;5035859;28;20029;-75
2022/01/29 02:03:17;;;;;;;5.63;4.32;;;;;;;;;;5034865;28;20167;-75
2022/01/29 02:05:44;;;;;;;6.25;4.30;;;;;;;;;;5035216;28;20028;-75
2022/01/29 02:08:12;;;;;;;5.60;4.30;;;;;;;;;;5035384;28;20078;-75
2022/01/29 02:10:38;;;;;;;5.95;4.70;;;;;;;;;;5035446;28;20025;-75
2022/01/29 02:13:05;;;;;;;5.53;3.97;;;;;;;;;;5034934;28;20029;-75
2022/01/29 02:15:31;;;;;;;6.32;4.43;;;;;;;;;;5035002;28;20026;-75
2022/01/29 02:17:58;;;;;;;5.80;3.92;;;;;;;;;;5035176;28;20039;-75
2022/01/29 02:20:27;;;;;;;6.28;4.18;;;;;;;;;;5043680;28;20017;-75
2022/01/29 02:22:54;;;;;;;6.20;4.28;;;;;;;;;;5054746;28;20511;-75
2022/01/29 02:25:30;;;;;;;4.65;3.80;;;;;;;;;;5054810;28;20021;-75
2022/01/29 02:27:59;;;;;;;6.05;4.15;;;;;;;;;;5050789;28;20029;-75
2022/01/29 02:30:28;;;;;;;5.28;3.70;;;;;;;;;;5043516;28;20052;-75
2022/01/29 02:32:54;;;;;;;6.45;3.97;;;;;;;;;;5047376;28;20396;-75
2022/01/29 02:35:20;;;;;;;5.35;3.60;;;;;;;;;;5034733;28;20024;-75
2022/01/29 02:37:50;;;;;;;5.10;3.78;;;;;;;;;;5047005;28;20083;-75
2022/01/29 02:40:17;;;;;;;4.63;3.30;;;;;;;;;;5054282;28;20060;-75
2022/01/29 02:42:43;;;;;;;4.65;3.55;;;;;;;;;;5038945;28;20557;-75
2022/01/29 02:45:09;;;;;;;5.72;4.07;;;;;;;;;;5037235;28;20017;-75
2022/01/29 02:47:35;;;;;;;4.65;3.42;;;;;;;;;;5053063;28;20040;-75
2022/01/29 02:50:01;;;;;;;4.78;3.67;;;;;;;;;;5054227;28;20036;-75
2022/01/29 02:52:27;;;;;;;6.32;3.53;;;;;;;;;;5050523;28;20026;-75
2022/01/29 02:54:54;;;;;;;4.07;3.55;;;;;;;;;;5034247;28;20431;-75
2022/01/29 02:57:20;;;;;;;5.43;3.95;;;;;;;;;;5034090;28;20034;-75
2022/01/29 02:59:46;;;;;;;4.38;3.50;;;;;;;;;;5033871;28;20049;-75
2022/01/29 03:02:12;;;;;;;4.90;3.70;;;;;;;;;;5036252;28;20029;-75
2022/01/29 03:04:38;;;;;;;5.30;3.90;;;;;;;;;;5054089;28;20025;-75
2022/01/29 03:07:04;;;;;;;5.00;3.63;;;;;;;;;;5054063;28;20481;-75
2022/01/29 03:09:30;;;;;;;4.22;3.38;;;;;;;;;;5054099;28;20048;-75
2022/01/29 03:11:57;;;;;;;4.50;3.40;;;;;;;;;;5053250;28;20496;-75
2022/01/29 03:14:23;;;;;;;4.15;3.10;;;;;;;;;;5054169;28;20052;-75
2022/01/29 03:16:49;;;;;;;4.57;3.35;;;;;;;;;;5053911;28;20064;-75
2022/01/29 03:19:15;;;;;;;4.70;3.30;;;;;;;;;;5053851;28;20017;-75
2022/01/29 03:21:41;;;;;;;4.70;3.20;;;;;;;;;;5053273;28;20033;-75
2022/01/29 03:24:07;;;;;;;4.25;3.25;;;;;;;;;;5053541;28;20021;-75
2022/01/29 03:26:33;;;;;;;4.65;3.30;;;;;;;;;;5053688;28;20029;-75
2022/01/29 03:28:59;;;;;;;4.10;3.22;;;;;;;;;;5053544;28;20510;-75
2022/01/29 03:31:26;;;;;;;3.58;3.08;;;;;;;;;;5053281;28;20051;-75
2022/01/29 03:33:52;;;;;;;4.50;3.17;;;;;;;;;;5053377;28;20092;-75
2022/01/29 03:36:19;;;;;;;5.07;3.35;;;;;;;;;;5050762;28;20060;-75
2022/01/29 03:38:45;;;;;;;4.80;3.65;;;;;;;;;;5033720;28;20433;-75
2022/01/29 03:41:14;;;;;;;4.38;3.22;;;;;;;;;;5036447;28;20549;-75
2022/01/29 03:43:47;;;;;;;5.13;3.38;;;;;;;;;;5051868;28;20029;-75
2022/01/29 03:46:14;;;;;;;4.30;2.92;;;;;;;;;;5053084;28;20052;-75
2022/01/29 03:48:40;;;;;;;4.55;3.45;;;;;;;;;;5053480;28;20029;-75
2022/01/29 03:51:06;;;;;;;4.40;3.20;;;;;;;;;;5053061;28;20035;-75
2022/01/29 03:53:32;;;;;;;5.03;3.10;;;;;;;;;;5040369;28;20476;-75
2022/01/29 03:55:58;;;;;;;5.28;3.78;;;;;;;;;;5032968;28;20033;-75
2022/01/29 03:58:24;;;;;;;4.30;3.13;;;;;;;;;;5032760;28;20520;-75
2022/01/29 04:00:51;;;;;;;4.13;3.30;;;;;;;;;;5031800;28;20112;-75
2022/01/29 04:03:17;;;;;;;4.57;3.00;;;;;;;;;;5032320;28;20036;-75
2022/01/29 04:05:43;;;;;;;4.20;3.05;;;;;;;;;;5033200;28;20451;-75
2022/01/29 04:08:15;;;;;;;4.40;3.13;;;;;;;;;;5032756;28;20033;-75
2022/01/29 04:10:42;;;;;;;4.32;3.30;;;;;;;;;;5032527;28;20056;-75
2022/01/29 04:13:11;;;;;;;3.80;3.00;;;;;;;;;;5031553;28;20025;-76
2022/01/29 04:15:37;;;;;;;4.47;3.22;;;;;;;;;;5032831;28;20021;-75
2022/01/29 04:18:03;;;;;;;3.85;3.15;;;;;;;;;;5032961;28;20048;-75
2022/01/29 04:20:29;;;;;;;4.00;3.20;;;;;;;;;;5032876;28;20028;-75
2022/01/29 04:22:55;;;;;;;4.57;3.05;;;;;;;;;;5032740;28;20056;-75
2022/01/29 04:25:23;;;;;;;4.20;3.08;;;;;;;;;;5032891;28;20029;-75
2022/01/29 04:27:49;;;;;;;4.80;3.30;;;;;;;;;;5031420;28;20029;-75
2022/01/29 04:30:27;;;;;;;3.78;2.85;;;;;;;;;;5031150;28;20067;-75
2022/01/29 04:35:20;;;;;;;4.03;2.70;;;;;;;;;;5032738;28;20030;-75
2022/01/29 04:37:49;;;;;;;4.50;3.10;;;;;;;;;;5047214;28;20032;-75
2022/01/29 04:40:15;;;;;;;4.95;3.33;;;;;;;;;;5052466;28;20051;-75
2022/01/29 04:42:42;;;;;;;3.17;2.85;;;;;;;;;;5037115;28;20094;-75
2022/01/29 04:45:08;;;;;;;4.35;2.85;;;;;;;;;;5032251;28;20029;-75
2022/01/29 04:47:34;;;;;;;4.25;3.33;;;;;;;;;;5032524;28;20026;-75
2022/01/29 04:50:00;;;;;;;4.07;2.70;;;;;;;;;;5032153;28;20029;-75
2022/01/29 04:52:26;;;;;;;2.85;2.35;;;;;;;;;;5034987;28;20051;-75
2022/01/29 04:54:52;;;;;;;3.95;3.33;;;;;;;;;;5052274;28;20031;-75
2022/01/29 04:57:18;;;;;;;3.80;2.80;;;;;;;;;;5052225;28;20436;-75
2022/01/29 04:59:45;;;;;;;3.10;2.55;;;;;;;;;;5051890;28;20048;-75
2022/01/29 05:02:11;;;;;;;3.10;2.55;;;;;;;;;;5051673;28;20395;-75
2022/01/29 05:04:37;;;;;;;3.08;2.50;;;;;;;;;;5052517;28;20025;-75
2022/01/29 05:07:03;;;;;;;3.15;2.75;;;;;;;;;;5051858;28;20024;-75
2022/01/29 05:09:29;;;;;;;3.60;2.50;;;;;;;;;;5052253;28;20496;-75
2022/01/29 05:11:56;;;;;;;5.35;2.95;;;;;;;;;;5051783;28;20049;-75
2022/01/29 05:14:37;;;;;;;3.25;2.60;;;;;;;;;;5051939;28;20514;-75
2022/01/29 05:28:02;;;;;;;3.30;2.42;;;;;;;;;;5055982;28;20068;-75
2022/01/29 05:30:28;;;;;;;3.38;3.03;;;;;;;;;;5055861;28;20060;-75
2022/01/29 05:32:54;;;;;;;3.88;2.83;;;;;;;;;;5055746;28;20499;-75
2022/01/29 05:35:20;;;;;;;3.33;2.55;;;;;;;;;;5056258;28;20442;-75
2022/01/29 05:37:49;;;;;;;3.40;2.53;;;;;;;;;;5040002;28;20035;-75
2022/01/29 05:40:15;;;;;;;2.63;2.20;;;;;;;;;;5035683;28;20404;-75
2022/01/29 05:42:41;;;;;;;3.15;2.50;;;;;;;;;;5050865;28;20025;-75
2022/01/29 05:45:08;;;;;;;2.83;2.35;;;;;;;;;;5055916;28;20017;-75
2022/01/29 05:47:35;;;;;;;2.75;2.30;;;;;;;;;;5055417;28;20043;-75
2022/01/29 05:50:01;;;;;;;2.58;2.38;;;;;;;;;;5055588;28;20099;-75
2022/01/29 05:52:27;;;;;;;3.45;2.38;;;;;;;;;;5051582;28;20025;-75
2022/01/29 05:54:53;;;;;;;3.22;2.45;;;;;;;;;;5035426;28;20025;-75
2022/01/29 05:57:19;;;;;;;2.80;2.20;;;;;;;;;;5035419;28;20032;-75
2022/01/29 05:59:45;;;;;;;2.78;2.20;;;;;;;;;;5035202;28;20420;-75
2022/01/29 06:02:11;;;;;;;3.00;2.40;;;;;;;;;;5035197;28;20030;-75
2022/01/29 06:04:37;;;;;;;2.72;2.25;;;;;;;;;;5035023;28;20021;-75
2022/01/29 06:07:04;;;;;;;3.72;2.67;;;;;;;;;;5035168;28;20116;-75
2022/01/29 06:09:30;;;;;;;2.80;2.20;;;;;;;;;;5035161;28;20026;-75
2022/01/29 06:11:56;;;;;;;2.83;2.40;;;;;;;;;;5033501;28;20040;-75
2022/01/29 06:14:22;;;;;;;2.50;2.22;;;;;;;;;;5035005;28;20030;-75
2022/01/29 06:16:48;;;;;;;2.55;2.13;;;;;;;;;;5033917;28;20033;-75
2022/01/29 06:19:14;;;;;;;2.90;2.00;;;;;;;;;;5033623;28;20477;-75
2022/01/29 06:21:40;;;;;;;3.38;2.30;;;;;;;;;;5033380;28;20381;-75
2022/01/29 06:24:06;;;;;;;2.38;1.98;;;;;;;;;;5034927;28;20620;-75
2022/01/29 06:26:32;;;;;;;2.95;2.20;;;;;;;;;;5034581;28;20120;-75
2022/01/29 06:28:59;;;;;;;3.35;2.28;;;;;;;;;;5035149;28;20080;-75
2022/01/29 06:31:25;;;;;;;2.83;2.20;;;;;;;;;;5034017;28;20477;-75
2022/01/29 06:33:51;;;;;;;2.58;2.30;;;;;;;;;;5032902;28;20408;-75
2022/01/29 06:36:17;;;;;;;3.30;2.50;;;;;;;;;;5036862;28;20037;-75
2022/01/29 06:38:43;;;;;;;3.33;2.30;;;;;;;;;;5053378;28;20027;-75
2022/01/29 06:41:09;;;;;;;3.63;2.47;;;;;;;;;;5051707;28;20100;-76
2022/01/29 06:43:36;;;;;;;2.80;2.08;;;;;;;;;;5034135;28;20021;-75
2022/01/29 06:46:02;;;;;;;2.22;1.90;;;;;;;;;;5034353;28;20033;-76
2022/01/29 06:48:28;;;;;;;3.25;2.28;;;;;;;;;;5034602;28;20026;-75
2022/01/29 06:50:54;;;;;;;2.55;2.15;;;;;;;;;;5034638;28;20029;-75
2022/01/29 06:53:20;;;;;;;2.35;1.88;;;;;;;;;;5044674;28;20087;-75
2022/01/29 06:55:46;;;;;;;3.38;2.35;;;;;;;;;;5052896;28;20079;-75
2022/01/29 06:58:12;;;;;;;3.42;2.08;;;;;;;;;;5053788;28;20563;-76
2022/01/29 07:00:38;;;;;;;2.53;2.08;;;;;;;;;;5054332;28;20025;-75
2022/01/29 07:03:04;;;;;;;2.70;2.15;;;;;;;;;;5053967;28;20024;-75
2022/01/29 07:05:30;;;;;;;2.75;2.30;;;;;;;;;;5054205;28;20036;-76
2022/01/29 07:07:56;;;;;;;2.85;2.35;;;;;;;;;;5054006;28;20021;-75
2022/01/29 07:10:23;;;;;;;2.70;2.20;;;;;;;;;;5053717;28;20029;-75
2022/01/29 07:12:49;;;;;;;3.22;2.30;;;;;;;;;;5054078;28;20442;-75
2022/01/29 07:15:15;;;;;;;3.13;2.13;;;;;;;;;;5053637;28;20036;-75
2022/01/29 07:17:41;;;;;;;3.03;2.30;;;;;;;;;;5054155;28;20103;-75
2022/01/29 07:20:08;;;;;;;2.80;2.30;;;;;;;;;;5053770;28;20033;-75
2022/01/29 07:22:38;;;;;;;3.08;2.20;;;;;;;;;;5053699;28;20102;-75
2022/01/29 07:25:05;;;;;;;4.85;2.47;;;;;;;;;;5052168;28;20389;-75
2022/01/29 07:27:31;;;;;;;3.30;2.33;;;;;;;;;;5053938;28;20029;-75
2022/01/29 07:29:57;;;;;;;3.55;2.15;;;;;;;;;;5053643;28;20052;-75
2022/01/29 07:32:23;;;;;;;3.72;2.45;;;;;;;;;;5053157;28;20028;-75
2022/01/29 07:34:49;;;;;;;3.03;2.50;;;;;;;;;;5053594;28;20032;-75
2022/01/29 07:37:15;;;;;;;3.00;2.28;;;;;;;;;;5043045;28;20104;-75
2022/01/29 07:39:41;;;;;;;3.20;2.70;;;;;;;;;;5033670;28;20026;-75
2022/01/29 07:42:07;;;;;;;2.85;2.28;;;;;;;;;;5042027;28;20053;-75
2022/01/29 07:44:33;;;;;;;2.88;2.47;;;;;;;;;;5053052;28;20021;-75
2022/01/29 07:46:59;;;;;;;2.38;2.15;;;;;;;;;;5052811;28;20024;-76
2022/01/29 07:49:25;;;;;;;2.88;2.47;;;;;;;;;;5053611;28;20033;-76
2022/01/29 07:51:51;;;;;;;2.70;2.10;;;;;;;;;;5053067;28;20025;-76
2022/01/29 07:54:17;;;;;;;3.00;2.30;;;;;;;;;;5033123;28;20030;-75
2022/01/29 07:56:44;;;;;;;3.20;2.50;;;;;;;;;;5033401;28;20518;-75
2022/01/29 07:59:10;;;;;;;3.13;2.08;;;;;;;;;;5032991;28;20128;-75
2022/01/29 08:01:36;;;;;;;3.50;2.50;;;;;;;;;;5031496;28;20387;-75
2022/01/29 08:04:02;;;;;;;3.30;2.67;;;;;;;;;;5032988;28;20029;-75
2022/01/29 08:06:31;;;;;;;5.00;2.50;;;;;;;;;;5033213;28;20079;-75
2022/01/29 08:08:57;;;;;;;3.88;2.70;;;;;;;;;;5031679;28;20033;-76
2022/01/29 08:11:24;;;;;;;3.25;2.40;;;;;;;;;;5032386;28;20054;-76
2022/01/29 08:13:50;;;;;;;2.88;2.42;;;;;;;;;;5032872;28;20072;-75
2022/01/29 08:16:16;;;;;;;2.63;2.20;;;;;;;;;;5032774;28;20029;-75
2022/01/29 08:18:43;;;;;;;3.10;2.38;;;;;;;;;;5032814;28;20025;-76
2022/01/29 08:21:12;;;;;;;2.80;2.40;;;;;;;;;;5032683;28;20100;-75
2022/01/29 08:23:38;;;;;;;3.95;2.60;;;;;;;;;;5031060;28;20037;-75
2022/01/29 08:26:04;;;;;;;3.00;2.42;;;;;;;;;;5032759;28;20029;-75
2022/01/29 08:28:30;;;;;;;6.05;2.90;;;;;;;;;;5031390;28;20496;-75
2022/01/29 08:30:56;;;;;;;2.83;2.30;;;;;;;;;;5032764;28;20120;-75
2022/01/29 08:33:22;;;;;;;2.97;2.42;;;;;;;;;;5032584;28;20026;-75
2022/01/29 08:35:49;;;;;;;2.63;2.33;;;;;;;;;;5032610;28;20029;-75
2022/01/29 08:38:15;;;;;;;3.25;2.28;;;;;;;;;;5050869;28;20515;-75
2022/01/29 08:40:41;;;;;;;2.50;2.15;;;;;;;;;;5052146;28;20031;-75
2022/01/29 08:43:08;;;;;;;2.72;2.33;;;;;;;;;;5033104;28;20021;-75
2022/01/29 08:45:34;;;;;;;3.13;2.28;;;;;;;;;;5032710;28;20381;-75
2022/01/29 08:48:01;;;;;;;4.35;2.75;;;;;;;;;;5031033;28;20485;-75
2022/01/29 08:50:27;;;;;;;4.95;2.95;;;;;;;;;;5032445;28;20025;-75
2022/01/29 08:52:53;;;;;;;9.38;5.30;;;;;;;;;;5039297;28;20035;-76
2022/01/29 08:55:19;;;;;;;17.92;6.28;;;;;;;;;;5052430;28;20021;-75
2022/01/29 08:57:45;;;;;;;21.75;7.28;;;;;;;;;;5051716;28;20025;-75
2022/01/29 09:00:12;;;;;;;20.55;8.18;;;;;;;;;;5052129;28;20025;-75
2022/01/29 09:02:38;;;;;;;21.52;7.93;;;;;;;;;;5050956;28;20116;-75
2022/01/29 09:05:04;;;;;;;20.88;8.65;;;;;;;;;;5052326;28;20025;-75
2022/01/29 09:07:30;;;;;;;20.50;7.82;;;;;;;;;;5052058;28;20029;-75
2022/01/29 09:09:56;;;;;;;29.60;10.82;;;;;;;;;;5051949;28;20111;-75
2022/01/29 09:12:23;;;;;;;17.95;7.60;;;;;;;;;;5051695;28;20032;-75
2022/01/29 09:14:49;;;;;;;21.67;8.50;;;;;;;;;;5051862;28;20039;-75
2022/01/29 09:17:15;;;;;;;21.40;7.90;;;;;;;;;;5052119;28;20496;-75
2022/01/29 09:19:41;;;;;;;19.55;8.90;;;;;;;;;;5052014;28;20052;-75
2022/01/29 09:22:07;;;;;;;19.23;7.10;;;;;;;;;;5051296;28;20117;-75
2022/01/29 09:24:33;;;;;;;21.02;8.23;;;;;;;;;;5052217;28;20124;-75
2022/01/29 09:27:00;;;;;;;20.10;7.80;;;;;;;;;;5051729;28;20025;-75
2022/01/29 09:29:26;;;;;;;16.58;6.90;;;;;;;;;;5051847;28;20036;-75
2022/01/29 09:31:52;;;;;;;16.15;7.18;;;;;;;;;;5051523;28;20425;-75
2022/01/29 09:34:18;;;;;;;15.77;6.95;;;;;;;;;;5052305;28;20384;-75
2022/01/29 09:36:44;;;;;;;23.83;10.05;;;;;;;;;;5045785;28;20034;-75
2022/01/29 09:39:11;;;;;;;16.30;7.15;;;;;;;;;;5031597;28;20048;-75
2022/01/29 09:41:37;;;;;;;19.60;7.18;;;;;;;;;;5037656;28;20025;-75
2022/01/29 09:44:04;;;;;;;17.13;7.70;;;;;;;;;;5051671;28;20031;-75
2022/01/29 09:46:31;;;;;;;14.35;6.97;;;;;;;;;;5051956;28;20087;-75
2022/01/29 09:48:57;;;;;;;21.45;8.30;;;;;;;;;;5052090;28;20718;-75
2022/01/29 09:51:23;;;;;;;19.55;8.48;;;;;;;;;;5051439;28;20492;-75
2022/01/29 09:53:49;;;;;;;15.18;6.75;;;;;;;;;;5037080;28;20029;-75
2022/01/29 09:56:16;;;;;;;18.05;8.38;;;;;;;;;;5031760;28;20030;-75
2022/01/29 09:58:42;;;;;;;17.55;7.93;;;;;;;;;;5031877;28;20049;-75
2022/01/29 10:01:09;;;;;;;19.65;8.07;;;;;;;;;;5031601;28;20045;-75
2022/01/29 10:03:35;;;;;;;19.00;7.88;;;;;;;;;;5031219;28;20026;-75
2022/01/29 10:06:02;;;;;;;21.40;8.57;;;;;;;;;;5031608;28;20029;-75
2022/01/29 10:08:28;;;;;;;24.63;11.30;;;;;;;;;;5030876;28;20026;-75
2022/01/29 10:10:56;;;;;;;18.20;8.95;;;;;;;;;;5034977;28;20026;-75
2022/01/29 10:13:22;;;;;;;22.15;10.57;;;;;;;;;;5034825;28;20087;-75
2022/01/29 10:15:48;;;;;;;15.38;7.72;;;;;;;;;;5034995;28;20073;-75
2022/01/29 10:18:24;;;;;;;16.75;8.07;;;;;;;;;;5035306;28;20475;-75
2022/01/29 10:20:51;;;;;;;18.17;9.40;;;;;;;;;;5033732;28;20021;-75
2022/01/29 10:23:17;;;;;;;16.77;7.82;;;;;;;;;;5034876;28;20207;-75
2022/01/29 10:25:50;;;;;;;17.50;8.80;;;;;;;;;;5034935;28;20408;-75
2022/01/29 10:28:17;;;;;;;15.55;7.35;;;;;;;;;;5035149;28;20028;-75
2022/01/29 10:30:50;;;;;;;11.82;6.00;;;;;;;;;;5035307;28;20087;-75
2022/01/29 10:33:23;;;;;;;11.83;6.37;;;;;;;;;;5034429;28;20436;-75
2022/01/29 10:36:10;;;;;;;11.38;6.05;;;;;;;;;;5033477;28;20087;-75
2022/01/29 10:38:42;;;;;;;14.57;6.68;;;;;;;;;;5034695;28;20393;-75
2022/01/29 10:41:24;;;;;;;8.77;4.75;;;;;;;;;;5035523;28;20029;-75
2022/01/29 10:43:54;;;;;;;13.70;6.77;;;;;;;;;;5054792;28;20063;-75
2022/01/29 10:46:28;;;;;;;10.15;4.85;;;;;;;;;;5054556;28;20090;-75
2022/01/29 10:48:54;;;;;;;;;;;;;;;;;;5055184;28;20049;-75
2022/01/29 10:51:20;;;;;;;7.85;3.75;;;;;;;;;;5053936;28;19904;-75
2022/01/29 10:53:46;;;;;;;7.43;3.97;;;;;;;;;;5040222;28;20479;-75
2022/01/29 10:56:12;;;;;;;8.73;4.18;;;;;;;;;;5034412;28;20034;-75
2022/01/29 10:58:47;;;;;;;12.23;4.70;;;;;;;;;;5034621;28;20437;-75
2022/01/29 11:01:14;;;;;;;10.02;4.22;;;;;;;;;;5034525;28;20090;-75
2022/01/29 11:03:41;;;;;;;7.95;4.47;;;;;;;;;;5033825;28;20086;-75
2022/01/29 11:06:10;;;;;;;8.60;4.40;;;;;;;;;;5034186;28;20049;-75
2022/01/29 11:08:37;;;;;;;8.60;4.22;;;;;;;;;;5032697;28;20116;-75
2022/01/29 11:11:04;;;;;;;9.10;4.05;;;;;;;;;;5032918;28;20091;-76
2022/01/29 11:13:30;;;;;;;9.32;4.57;;;;;;;;;;5033622;28;20105;-75
2022/01/29 11:15:58;;;;;;;8.52;4.32;;;;;;;;;;5034079;28;20022;-75
2022/01/29 11:18:27;;;;;;;8.70;4.20;;;;;;;;;;5033848;28;20026;-75
2022/01/29 11:20:54;;;;;;;9.48;4.38;;;;;;;;;;5033081;28;20026;-75
2022/01/29 11:23:21;;;;;;;9.18;4.40;;;;;;;;;;5034131;28;20493;-75
2022/01/29 11:25:47;;;;;;;10.40;5.32;;;;;;;;;;5032423;28;20032;-75
2022/01/29 11:28:16;;;;;;;10.23;4.28;;;;;;;;;;5032755;28;20064;-75
2022/01/29 11:30:43;;;;;;;6.68;3.50;;;;;;;;;;5033649;28;20017;-75
2022/01/29 11:33:09;;;;;;;10.50;4.63;;;;;;;;;;5033810;28;20026;-75
2022/01/29 11:35:50;;;;;;;7.35;3.60;;;;;;;;;;5033758;28;20609;-75
2022/01/29 11:38:27;;;;;;;6.93;3.85;;;;;;;;;;5052173;28;20028;-75
2022/01/29 11:41:04;;;;;;;5.35;3.30;;;;;;;;;;5053382;28;20036;-75
2022/01/29 11:43:31;;;;;;;4.82;3.50;;;;;;;;;;5031833;28;20056;-75
2022/01/29 11:46:05;;;;;;;5.88;3.60;;;;;;;;;;5033430;28;20078;-75
2022/01/29 11:48:50;;;;;;;5.90;3.50;;;;;;;;;;5033433;28;20415;-75
2022/01/29 11:51:36;;;;;;;8.40;4.55;;;;;;;;;;5033228;28;20021;-75
2022/01/29 11:54:02;;;;;;;6.50;3.50;;;;;;;;;;5049249;28;20032;-75
2022/01/29 11:56:34;;;;;;;6.80;3.40;;;;;;;;;;5053456;28;20059;-75
2022/01/29 11:59:36;;;;;;;4.10;3.30;;;;;;;;;;5051808;28;20044;-75
2022/01/29 12:02:04;;;;;;;6.25;3.45;;;;;;;;;;5050329;28;20029;-75
2022/01/29 12:05:00;;;;;;;6.18;3.53;;;;;;;;;;5052500;28;20033;-75
2022/01/29 12:10:02;;;;;;;8.45;4.75;;;;;;;;;;5053217;28;20396;-75
2022/01/29 12:12:29;;;;;;;5.55;3.55;;;;;;;;;;5052505;28;20025;-75
2022/01/29 12:15:10;;;;;;;8.05;4.45;;;;;;;;;;5053418;28;20108;-75
2022/01/29 12:17:36;;;;;;;5.45;3.33;;;;;;;;;;5051249;28;20025;-75
2022/01/29 12:20:04;;;;;;;5.93;3.78;;;;;;;;;;5052827;28;20112;-75
2022/01/29 12:22:33;;;;;;;7.90;5.05;;;;;;;;;;5051531;28;20025;-75
2022/01/29 12:25:01;;;;;;;7.82;4.32;;;;;;;;;;5051555;28;20436;-75
2022/01/29 12:27:46;;;;;;;12.65;7.20;;;;;;;;;;5052572;28;20032;-75
2022/01/29 12:30:14;;;;;;;4.82;3.35;;;;;;;;;;5052766;28;20018;-75
2022/01/29 12:32:41;;;;;;;5.68;3.33;;;;;;;;;;5052049;28;20035;-75
2022/01/29 12:35:07;;;;;;;5.50;3.05;;;;;;;;;;5052948;28;20072;-75
2022/01/29 12:37:33;;;;;;;7.20;3.08;;;;;;;;;;5038456;28;20488;-76
2022/01/29 12:40:06;;;;;;;5.85;3.70;;;;;;;;;;5032391;28;20022;-75
2022/01/29 12:42:43;;;;;;;5.53;3.28;;;;;;;;;;5046477;28;20066;-75
2022/01/29 12:45:10;;;;;;;6.55;3.53;;;;;;;;;;5052332;28;20021;-75
2022/01/29 12:47:36;;;;;;;5.60;3.08;;;;;;;;;;5051145;28;20463;-75
2022/01/29 12:50:03;;;;;;;4.25;2.83;;;;;;;;;;5052050;28;20096;-75
2022/01/29 12:52:30;;;;;;;5.97;3.50;;;;;;;;;;5048783;28;20029;-75
2022/01/29 12:55:05;;;;;;;4.50;2.80;;;;;;;;;;5032151;28;20501;-75
2022/01/29 12:57:48;;;;;;;4.78;2.72;;;;;;;;;;5032082;28;20033;-75
2022/01/29 13:00:17;;;;;;;5.10;3.00;;;;;;;;;;5031041;28;20511;-75
2022/01/29 13:02:43;;;;;;;4.70;2.85;;;;;;;;;;5032093;28;20037;-75
2022/01/29 13:05:10;;;;;;;4.13;2.38;;;;;;;;;;5032085;28;20022;-75
2022/01/29 13:07:38;;;;;;;5.00;3.00;;;;;;;;;;5032370;28;20091;-75
2022/01/29 13:10:05;;;;;;;4.68;2.35;;;;;;;;;;5032147;28;20034;-75
2022/01/29 13:12:38;;;;;;;4.75;2.58;;;;;;;;;;5032226;28;20061;-75
2022/01/29 13:15:05;;;;;;;4.25;2.75;;;;;;;;;;5031935;28;20493;-75
2022/01/29 13:17:31;;;;;;;4.13;2.50;;;;;;;;;;5030887;28;20040;-75
2022/01/29 13:19:57;;;;;;;6.68;3.10;;;;;;;;;;5032095;28;20071;-75
2022/01/29 13:22:26;;;;;;;6.10;2.83;;;;;;;;;;5030420;28;20116;-75
2022/01/29 13:25:01;;;;;;;4.47;2.78;;;;;;;;;;5031146;28;20021;-75
2022/01/29 13:27:33;;;;;;;4.25;2.53;;;;;;;;;;5032256;28;20073;-75
2022/01/29 13:30:18;;;;;;;2.90;2.28;;;;;;;;;;5032144;28;20034;-75
2022/01/29 13:32:44;;;;;;;4.85;2.25;;;;;;;;;;5030418;28;20095;-75
2022/01/29 13:35:23;;;;;;;5.43;2.60;;;;;;;;;;5030615;28;20530;-75
2022/01/29 13:38:08;;;;;;;3.70;2.35;;;;;;;;;;5045183;28;20033;-75
2022/01/29 13:40:36;;;;;;;3.50;2.17;;;;;;;;;;5051678;28;20029;-75
2022/01/29 13:43:06;;;;;;;2.90;2.17;;;;;;;;;;5033545;28;20021;-75
2022/01/29 13:45:34;;;;;;;6.88;2.55;;;;;;;;;;5035414;28;20045;-75
2022/01/29 13:48:10;;;;;;;3.50;1.80;;;;;;;;;;5035531;28;20404;-75
2022/01/29 13:50:46;;;;;;;4.25;2.42;;;;;;;;;;5035440;28;20029;-75
2022/01/29 13:53:19;;;;;;;4.05;2.58;;;;;;;;;;5044839;28;20468;-75
2022/01/29 13:56:01;;;;;;;4.68;2.58;;;;;;;;;;5053931;28;20408;-75
2022/01/29 13:58:43;;;;;;;3.60;2.22;;;;;;;;;;5055348;28;20044;-75
2022/01/29 14:01:09;;;;;;;3.05;2.13;;;;;;;;;;5055314;28;20021;-75
2022/01/29 14:03:42;;;;;;;3.10;2.00;;;;;;;;;;5055117;28;20396;-75
2022/01/29 14:06:30;;;;;;;3.25;2.00;;;;;;;;;;5055421;28;20184;-75
2022/01/29 14:09:09;;;;;;;3.78;2.50;;;;;;;;;;5053695;28;20040;-75
2022/01/29 14:12:08;;;;;;;3.92;2.10;;;;;;;;;;5054680;28;20029;-75
2022/01/29 14:14:39;;;;;;;3.75;2.40;;;;;;;;;;5053886;28;20106;-75
2022/01/29 14:17:08;;;;;;;3.17;2.05;;;;;;;;;;5055050;28;20506;-75
2022/01/29 14:19:35;;;;;;;2.45;1.85;;;;;;;;;;5055034;28;20064;-75
2022/01/29 14:22:01;;;;;;;2.70;1.98;;;;;;;;;;5054789;28;20021;-75
2022/01/29 14:24:28;;;;;;;2.17;1.98;;;;;;;;;;5055063;28;20029;-75
2022/01/29 14:26:55;;;;;;;4.05;2.35;;;;;;;;;;5055063;28;20104;-75
2022/01/29 14:29:21;;;;;;;3.50;2.20;;;;;;;;;;5054596;28;20033;-75
2022/01/29 14:31:48;;;;;;;3.00;2.10;;;;;;;;;;5054297;28;20025;-75
2022/01/29 14:34:14;;;;;;;3.30;2.30;;;;;;;;;;5054720;28;20526;-75
2022/01/29 14:36:41;;;;;;;2.47;1.90;;;;;;;;;;5049234;28;20021;-75
2022/01/29 14:39:07;;;;;;;3.15;1.90;;;;;;;;;;5034626;28;20492;-75
2022/01/29 14:41:36;;;;;;;3.85;2.58;;;;;;;;;;5039918;28;20032;-75
2022/01/29 14:44:02;;;;;;;3.38;2.30;;;;;;;;;;5054669;28;20457;-75
2022/01/29 14:46:28;;;;;;;3.47;2.30;;;;;;;;;;5054357;28;20104;-75
2022/01/29 14:48:54;;;;;;;4.22;2.70;;;;;;;;;;5054588;28;20029;-75
2022/01/29 14:51:26;;;;;;;3.45;2.45;;;;;;;;;;5053903;28;20435;-75
2022/01/29 14:53:52;;;;;;;3.75;2.30;;;;;;;;;;5039383;28;20036;-75
2022/01/29 14:56:18;;;;;;;4.55;2.70;;;;;;;;;;5032434;28;20113;-75
2022/01/29 14:58:44;;;;;;;3.08;2.10;;;;;;;;;;5034228;28;20100;-75
2022/01/29 15:01:11;;;;;;;3.55;2.40;;;;;;;;;;5032855;28;20505;-75